Weather at Cassidy International Airport

Public forecast

Using degrees Celsius for public forecast. Weather courtesy of forecast.io.

Current aviation weather report (METAR) for Cassidy International Airport

Retrieved 2021/01/28 12:00 UTC (59 minutes ago):

PLCH 281200Z 12006KT 9999 FEW020 25/21 Q1007

Aviation forecast (TAF) for Cassidy International Airport

Retrieved 2021/01/28 12:00 UTC (59 minutes ago):

TAF PLCH 281119Z 2812/2912 10007KT 9999 FEW020